createdAt,value
2022-07-25T00:01:15.177Z,257.77
2022-07-25T00:04:18.982Z,269.42
2022-07-25T00:07:21.758Z,254.25
2022-07-25T00:10:25.087Z,280.87
2022-07-25T00:13:27.747Z,286.60
2022-07-25T00:16:30.890Z,284.55
2022-07-25T00:19:33.705Z,315.37
2022-07-25T00:22:36.621Z,258.35
2022-07-25T00:25:39.860Z,284.65
2022-07-25T00:28:43.798Z,261.37
2022-07-25T00:31:47.045Z,257.33
2022-07-25T00:34:50.030Z,266.95
2022-07-25T00:37:52.706Z,295.48
2022-07-25T00:40:55.913Z,265.00
2022-07-25T00:43:58.685Z,241.95
2022-07-25T00:47:01.655Z,252.45
2022-07-25T00:50:05.173Z,275.23
2022-07-25T00:53:08.277Z,263.27
2022-07-25T00:56:11.520Z,262.98
2022-07-25T00:59:14.924Z,246.82
2022-07-25T01:02:17.783Z,243.68
2022-07-25T01:05:21.235Z,269.90
2022-07-25T01:08:24.374Z,269.23
2022-07-25T01:11:27.351Z,234.98
2022-07-25T01:14:30.019Z,251.43
2022-07-25T01:17:32.911Z,255.43
2022-07-25T01:20:36.208Z,261.55
2022-07-25T01:23:39.139Z,276.17
2022-07-25T01:26:41.862Z,241.63
2022-07-25T01:29:44.828Z,244.55
2022-07-25T01:32:48.212Z,266.70
2022-07-25T01:35:51.347Z,266.55
2022-07-25T01:38:54.376Z,266.67
2022-07-25T01:41:57.477Z,256.02
2022-07-25T01:45:00.542Z,255.05
2022-07-25T01:48:04.222Z,250.35
2022-07-25T01:51:08.215Z,254.48
2022-07-25T01:54:14.160Z,266.85
2022-07-25T01:57:17.762Z,242.57
2022-07-25T02:00:21.186Z,246.20
2022-07-25T02:03:29.871Z,237.32
2022-07-25T02:06:34.416Z,228.57
2022-07-25T02:09:37.402Z,234.95
2022-07-25T02:12:40.090Z,228.60
2022-07-25T02:15:43.222Z,229.82
2022-07-25T02:18:46.116Z,232.80
2022-07-25T02:21:50.802Z,205.37
2022-07-25T02:24:53.487Z,215.43
2022-07-25T02:27:56.394Z,239.40
2022-07-25T02:30:59.146Z,214.68
2022-07-25T02:34:02.809Z,195.15
2022-07-25T02:37:05.599Z,195.87
2022-07-25T02:40:09.615Z,186.52
2022-07-25T02:43:12.329Z,189.60
2022-07-25T02:46:17.819Z,177.02
2022-07-25T02:49:20.647Z,199.95
2022-07-25T02:52:23.780Z,181.95
2022-07-25T02:55:27.544Z,172.52
2022-07-25T02:58:30.471Z,206.80
2022-07-25T03:01:33.484Z,205.77
2022-07-25T03:04:37.702Z,220.48
2022-07-25T03:07:40.986Z,205.20
2022-07-25T03:10:44.103Z,206.20
2022-07-25T03:13:46.777Z,203.00
2022-07-25T03:16:49.725Z,233.73
2022-07-25T03:19:52.503Z,209.95
2022-07-25T03:22:55.497Z,223.48
2022-07-25T03:25:58.533Z,221.52
2022-07-25T03:29:01.407Z,209.25
2022-07-25T03:32:04.777Z,221.70
2022-07-25T03:35:08.212Z,208.68
2022-07-25T03:38:11.077Z,220.37
2022-07-25T03:41:14.096Z,209.85
2022-07-25T03:44:16.783Z,207.68
2022-07-25T03:47:20.625Z,208.40
2022-07-25T03:50:23.811Z,212.98
2022-07-25T03:53:26.702Z,207.85
2022-07-25T03:56:40.321Z,219.55
2022-07-25T03:59:47.089Z,218.73
2022-07-25T04:02:49.925Z,215.93
2022-07-25T04:05:52.954Z,192.65
2022-07-25T04:08:56.253Z,188.95
2022-07-25T04:11:59.255Z,207.40
2022-07-25T04:15:02.147Z,176.65
2022-07-25T04:18:06.295Z,191.60
2022-07-25T04:21:11.455Z,177.93
2022-07-25T04:24:14.377Z,171.48
2022-07-25T04:27:17.071Z,176.40
2022-07-25T04:30:24.479Z,177.77
2022-07-25T04:33:27.972Z,186.50
2022-07-25T04:36:30.992Z,183.23
2022-07-25T04:39:33.766Z,187.80
2022-07-25T04:42:36.873Z,198.80
2022-07-25T04:45:39.853Z,207.55
2022-07-25T04:48:42.892Z,245.10
2022-07-25T04:51:49.038Z,199.43
2022-07-25T04:54:51.979Z,198.55
2022-07-25T04:57:54.643Z,215.65
2022-07-25T05:00:58.219Z,224.12
2022-07-25T05:04:01.007Z,203.00
2022-07-25T05:07:04.135Z,247.43
2022-07-25T05:10:07.288Z,274.95
2022-07-25T05:13:10.762Z,308.55
2022-07-25T05:16:15.828Z,328.00
2022-07-25T05:19:18.782Z,337.40
2022-07-25T05:22:25.189Z,335.38
2022-07-25T05:25:31.173Z,315.73
2022-07-25T05:28:34.058Z,323.87
2022-07-25T05:31:37.043Z,354.42
2022-07-25T05:34:41.191Z,351.70
2022-07-25T05:37:44.213Z,349.27
2022-07-25T05:40:47.023Z,370.95
2022-07-25T05:43:50.018Z,368.60
2022-07-25T05:46:52.735Z,346.05
2022-07-25T05:49:55.861Z,342.23
2022-07-25T05:52:58.545Z,332.27
2022-07-25T05:56:01.599Z,371.85
2022-07-25T05:59:04.338Z,374.88
2022-07-25T06:02:07.845Z,370.80
2022-07-25T06:05:10.990Z,334.52
2022-07-25T06:08:14.794Z,352.40
2022-07-25T06:11:17.939Z,386.98
2022-07-25T06:14:21.526Z,351.42
2022-07-25T06:17:29.230Z,367.02
2022-07-25T06:20:35.515Z,318.10
2022-07-25T06:23:38.786Z,304.10
2022-07-25T06:26:41.614Z,291.38
2022-07-25T06:29:44.845Z,366.33
2022-07-25T06:32:48.909Z,340.15
2022-07-25T06:35:52.070Z,336.08
2022-07-25T06:38:54.812Z,335.17
2022-07-25T06:41:59.730Z,301.55
2022-07-25T06:45:12.277Z,333.83
2022-07-25T06:48:18.875Z,265.65
2022-07-25T06:51:23.735Z,305.70
2022-07-25T06:54:26.871Z,353.98
2022-07-25T06:57:29.708Z,337.30
2022-07-25T07:00:32.963Z,392.02
2022-07-25T07:03:38.415Z,275.13
2022-07-25T07:06:41.871Z,374.67
2022-07-25T07:09:44.635Z,277.73
2022-07-25T07:12:48.725Z,312.25
2022-07-25T07:15:52.143Z,270.00
2022-07-25T07:18:55.363Z,204.10
2022-07-25T07:21:58.004Z,261.92
2022-07-25T07:25:01.890Z,219.37
2022-07-25T07:28:05.271Z,273.83
2022-07-25T07:31:17.253Z,323.15
2022-07-25T07:34:20.584Z,293.17
2022-07-25T07:37:23.599Z,307.27
2022-07-25T07:40:26.997Z,278.83
2022-07-25T07:43:31.886Z,222.05
2022-07-25T07:46:34.875Z,326.92
2022-07-25T07:49:38.171Z,310.00
2022-07-25T07:52:40.880Z,326.20
2022-07-25T07:55:48.789Z,343.42
2022-07-25T07:58:51.611Z,322.67
2022-07-25T08:01:54.604Z,332.55
2022-07-25T08:04:57.673Z,349.10
2022-07-25T08:08:01.429Z,259.05
2022-07-25T08:11:04.513Z,296.65
2022-07-25T08:14:07.809Z,260.85
2022-07-25T08:17:12.907Z,375.98
2022-07-25T08:20:36.768Z,217.40
2022-07-25T08:23:40.110Z,248.68
2022-07-25T08:26:42.828Z,237.88
2022-07-25T08:29:45.813Z,292.50
2022-07-25T08:32:48.446Z,265.98
2022-07-25T08:35:54.661Z,309.77
2022-07-25T08:38:57.420Z,297.35
2022-07-25T08:42:01.269Z,200.00
2022-07-25T08:45:07.036Z,308.83
2022-07-25T08:48:10.844Z,237.90
2022-07-25T08:51:14.705Z,310.38
2022-07-25T08:54:18.427Z,266.05
2022-07-25T08:57:21.935Z,267.15
2022-07-25T09:00:31.185Z,281.10
2022-07-25T09:03:33.970Z,284.62
2022-07-25T09:06:37.621Z,207.85
2022-07-25T09:09:40.367Z,236.40
2022-07-25T09:12:53.913Z,313.12
2022-07-25T09:15:59.810Z,379.17
2022-07-25T09:19:23.379Z,332.70
2022-07-25T09:22:26.116Z,280.10
2022-07-25T09:25:32.108Z,266.45
2022-07-25T09:28:49.324Z,252.73
2022-07-25T09:31:53.923Z,369.40
2022-07-25T09:34:56.571Z,323.90
2022-07-25T09:38:13.802Z,266.08
2022-07-25T09:41:16.514Z,275.48
2022-07-25T09:44:24.250Z,378.12
2022-07-25T09:47:27.465Z,294.35
2022-07-25T09:50:33.514Z,253.20
2022-07-25T09:53:36.636Z,284.05
2022-07-25T09:56:39.712Z,275.62
2022-07-25T09:59:45.799Z,285.48
2022-07-25T10:02:54.888Z,253.57
2022-07-25T10:06:03.563Z,273.83
2022-07-25T10:09:14.483Z,315.73
2022-07-25T10:12:23.392Z,348.55
2022-07-25T10:15:26.057Z,305.40
2022-07-25T10:18:30.882Z,343.45
2022-07-25T10:21:33.593Z,316.83
2022-07-25T10:24:39.022Z,281.50
2022-07-25T10:27:50.712Z,267.80
2022-07-25T10:30:58.778Z,261.40
2022-07-25T10:34:07.944Z,316.50
2022-07-25T10:37:18.425Z,296.67
2022-07-25T10:40:44.116Z,288.67
2022-07-25T10:43:50.463Z,308.55
2022-07-25T10:47:09.369Z,308.83
2022-07-25T10:50:34.665Z,277.65
2022-07-25T10:53:45.185Z,263.58
2022-07-25T10:56:59.124Z,278.50
2022-07-25T11:00:09.163Z,276.45
2022-07-25T11:03:17.699Z,329.17
2022-07-25T11:06:39.758Z,325.08
2022-07-25T11:09:44.486Z,394.10
2022-07-25T11:12:47.278Z,325.87
2022-07-25T11:15:50.683Z,342.00
2022-07-25T11:18:57.112Z,350.33
2022-07-25T11:22:04.392Z,351.95
2022-07-25T11:25:12.961Z,398.25
2022-07-25T11:28:15.939Z,377.80
2022-07-25T11:31:22.414Z,406.35
2022-07-25T11:34:31.815Z,369.30
2022-07-25T11:37:40.177Z,390.98
2022-07-25T11:40:44.254Z,390.48
2022-07-25T11:43:50.171Z,413.20
2022-07-25T11:46:53.144Z,371.92
2022-07-25T11:49:59.162Z,373.80
2022-07-25T11:53:14.577Z,373.70
2022-07-25T11:56:42.436Z,369.67
2022-07-25T11:59:43.963Z,369.02
2022-07-25T12:02:50.705Z,395.80
2022-07-25T12:05:55.206Z,398.77
2022-07-25T12:08:58.279Z,407.90
2022-07-25T12:12:04.707Z,419.45
2022-07-25T12:15:09.287Z,386.27
2022-07-25T12:18:12.643Z,367.02
2022-07-25T12:21:15.319Z,376.65
2022-07-25T12:24:18.323Z,386.98
2022-07-25T12:27:21.131Z,403.02
2022-07-25T12:30:25.653Z,411.62
2022-07-25T12:33:28.404Z,389.05
2022-07-25T12:36:31.579Z,363.67
2022-07-25T12:39:34.396Z,358.23
2022-07-25T12:42:37.389Z,357.77
2022-07-25T12:45:40.475Z,343.05
2022-07-25T12:48:44.153Z,362.77
2022-07-25T12:51:46.894Z,342.58
2022-07-25T12:54:49.957Z,336.90
2022-07-25T12:57:53.047Z,335.38
2022-07-25T13:01:02.220Z,359.00
2022-07-25T13:04:07.371Z,329.75
2022-07-25T13:07:10.459Z,341.90
2022-07-25T13:10:13.332Z,331.50
2022-07-25T13:13:16.328Z,348.75
2022-07-25T13:16:19.154Z,347.90
2022-07-25T13:19:22.172Z,349.58
2022-07-25T13:22:25.615Z,343.27
2022-07-25T13:25:28.865Z,345.52
2022-07-25T13:28:31.951Z,368.58
2022-07-25T13:31:36.130Z,350.35
2022-07-25T13:34:39.287Z,330.45
2022-07-25T13:37:42.349Z,375.25
2022-07-25T13:40:45.087Z,347.77
2022-07-25T13:43:48.070Z,372.33
2022-07-25T13:46:50.857Z,365.37
2022-07-25T13:49:54.322Z,338.15
2022-07-25T13:52:57.590Z,358.63
2022-07-25T13:56:00.951Z,348.87
2022-07-25T13:59:04.754Z,352.70
2022-07-25T14:02:12.801Z,363.87
2022-07-25T14:05:15.991Z,351.45
2022-07-25T14:08:19.268Z,371.60
2022-07-25T14:11:25.900Z,390.48
2022-07-25T14:14:31.368Z,376.58
2022-07-25T14:17:35.338Z,362.08
2022-07-25T14:20:38.123Z,346.60
2022-07-25T14:23:41.230Z,353.73
2022-07-25T14:26:43.963Z,375.48
2022-07-25T14:29:47.013Z,389.50
2022-07-25T14:32:49.740Z,422.37
2022-07-25T14:35:52.814Z,391.42
2022-07-25T14:38:55.808Z,388.98
2022-07-25T14:41:59.516Z,388.48
2022-07-25T14:45:02.207Z,360.25
2022-07-25T14:48:08.575Z,366.20
2022-07-25T14:51:11.425Z,372.23
2022-07-25T14:54:15.182Z,388.30
2022-07-25T14:57:19.857Z,388.80
2022-07-25T15:00:29.165Z,362.40
2022-07-25T15:03:32.289Z,392.25
2022-07-25T15:06:36.411Z,358.02
2022-07-25T15:09:39.195Z,348.60
2022-07-25T15:12:45.109Z,399.67
2022-07-25T15:15:47.982Z,374.42
2022-07-25T15:19:25.867Z,424.10
2022-07-25T15:22:13.962Z,416.70
2022-07-25T15:25:48.254Z,434.92
2022-07-25T15:28:40.031Z,391.50
2022-07-25T15:31:43.067Z,392.37
2022-07-25T15:34:45.883Z,352.83
2022-07-25T15:37:48.953Z,383.00
2022-07-25T15:40:52.053Z,369.42
2022-07-25T15:43:54.950Z,389.90
2022-07-25T15:46:57.685Z,374.83
2022-07-25T15:50:01.419Z,397.45
2022-07-25T15:53:05.009Z,416.45
2022-07-25T15:56:08.090Z,402.45
2022-07-25T15:59:10.862Z,408.00
2022-07-25T16:02:13.993Z,378.58
2022-07-25T16:05:17.133Z,402.73
2022-07-25T16:08:19.793Z,425.23
2022-07-25T16:11:22.766Z,404.23
2022-07-25T16:14:25.584Z,406.05
2022-07-25T16:17:32.038Z,431.52
2022-07-25T16:20:34.841Z,412.77
2022-07-25T16:23:42.530Z,415.60
2022-07-25T16:26:49.094Z,405.70
2022-07-25T16:29:52.284Z,430.98
2022-07-25T16:32:55.576Z,426.20
2022-07-25T16:35:58.680Z,405.90
2022-07-25T16:39:02.414Z,367.00
2022-07-25T16:42:05.639Z,394.33
2022-07-25T16:45:09.276Z,371.67
2022-07-25T16:48:12.366Z,407.75
2022-07-25T16:51:15.299Z,376.77
2022-07-25T16:54:18.238Z,403.52
2022-07-25T16:57:25.115Z,411.23
2022-07-25T17:00:28.458Z,396.40
2022-07-25T17:03:31.198Z,424.38
2022-07-25T17:06:34.259Z,390.23
2022-07-25T17:09:37.098Z,385.13
2022-07-25T17:12:40.169Z,379.15
2022-07-25T17:15:45.548Z,371.05
2022-07-25T17:18:48.968Z,417.83
2022-07-25T17:21:51.824Z,396.75
2022-07-25T17:24:54.808Z,405.77
2022-07-25T17:27:57.801Z,403.55
2022-07-25T17:31:00.902Z,409.17
2022-07-25T17:34:03.835Z,385.83
2022-07-25T17:37:07.759Z,342.60
2022-07-25T17:40:11.002Z,340.23
2022-07-25T17:43:14.069Z,434.70
2022-07-25T17:46:16.961Z,445.15
2022-07-25T17:49:21.726Z,457.23
2022-07-25T17:52:24.547Z,386.48
2022-07-25T17:55:28.801Z,416.95
2022-07-25T17:58:31.958Z,432.77
2022-07-25T18:01:35.012Z,417.90
2022-07-25T18:04:38.039Z,419.98
2022-07-25T18:07:45.393Z,400.85
2022-07-25T18:10:49.921Z,394.42
2022-07-25T18:13:52.584Z,404.38
2022-07-25T18:16:55.942Z,390.87
2022-07-25T18:19:58.778Z,387.45
2022-07-25T18:23:01.884Z,373.27
2022-07-25T18:26:04.709Z,316.58
2022-07-25T18:29:08.598Z,375.65
2022-07-25T18:32:11.959Z,341.40
2022-07-25T18:35:14.968Z,333.02
2022-07-25T18:38:18.711Z,338.77
2022-07-25T18:41:30.265Z,318.70
2022-07-25T18:44:33.367Z,271.50
2022-07-25T18:47:37.523Z,252.50
2022-07-25T18:50:40.559Z,234.87
2022-07-25T18:53:47.812Z,259.02
2022-07-25T18:56:51.279Z,250.40
2022-07-25T18:59:54.258Z,255.80
2022-07-25T19:02:57.235Z,240.45
2022-07-25T19:06:03.492Z,221.50
2022-07-25T19:09:06.643Z,228.73
2022-07-25T19:12:10.690Z,221.10
2022-07-25T19:15:13.447Z,231.32
2022-07-25T19:18:16.664Z,200.82
2022-07-25T19:21:19.370Z,203.77
2022-07-25T19:24:22.649Z,183.25
2022-07-25T19:27:26.946Z,233.93
2022-07-25T19:30:30.490Z,182.00
2022-07-25T19:33:34.950Z,219.52
2022-07-25T19:36:39.472Z,206.50
2022-07-25T19:39:42.175Z,218.93
2022-07-25T19:42:45.179Z,197.25
2022-07-25T19:45:48.831Z,203.48
2022-07-25T19:48:52.096Z,217.02
2022-07-25T19:51:54.896Z,201.18
2022-07-25T19:54:58.747Z,189.35
2022-07-25T19:58:01.496Z,201.52
2022-07-25T20:01:04.520Z,188.40
2022-07-25T20:04:09.275Z,190.55
2022-07-25T20:07:12.292Z,200.15
2022-07-25T20:10:17.723Z,206.93
2022-07-25T20:13:20.910Z,211.85
2022-07-25T20:16:24.168Z,194.02
2022-07-25T20:19:27.025Z,198.60
2022-07-25T20:22:31.592Z,198.15
2022-07-25T20:25:34.260Z,200.45
2022-07-25T20:28:38.137Z,207.10
2022-07-25T20:31:42.617Z,224.43
2022-07-25T20:34:45.664Z,218.27
2022-07-25T20:37:48.476Z,194.05
2022-07-25T20:40:52.340Z,203.75
2022-07-25T20:43:55.072Z,218.45
2022-07-25T20:46:58.052Z,184.75
2022-07-25T20:50:01.448Z,183.15
2022-07-25T20:53:06.138Z,185.50
2022-07-25T20:56:09.153Z,184.87
2022-07-25T20:59:12.164Z,178.62
2022-07-25T21:02:17.426Z,182.65
2022-07-25T21:05:21.621Z,181.65
2022-07-25T21:08:24.535Z,184.57
2022-07-25T21:11:27.529Z,182.35
2022-07-25T21:14:30.211Z,181.20
2022-07-25T21:17:34.076Z,187.55
2022-07-25T21:20:36.780Z,178.52
2022-07-25T21:23:40.734Z,169.48
2022-07-25T21:26:43.469Z,181.50
2022-07-25T21:29:46.780Z,176.05
2022-07-25T21:32:49.501Z,163.68
2022-07-25T21:35:53.006Z,176.00
2022-07-25T21:38:56.715Z,156.70
2022-07-25T21:41:59.991Z,164.55
2022-07-25T21:45:04.679Z,164.70
2022-07-25T21:48:07.814Z,157.10
2022-07-25T21:51:15.190Z,157.00
2022-07-25T21:54:26.511Z,150.05
2022-07-25T21:57:29.275Z,150.25
2022-07-25T22:00:33.521Z,151.75
2022-07-25T22:03:36.923Z,157.68
2022-07-25T22:06:39.618Z,149.80
2022-07-25T22:09:42.641Z,144.37
2022-07-25T22:12:45.751Z,142.55
2022-07-25T22:15:48.832Z,148.98
2022-07-25T22:18:51.519Z,151.95
2022-07-25T22:21:54.594Z,157.45
2022-07-25T22:24:57.339Z,155.52
2022-07-25T22:28:01.268Z,152.02
2022-07-25T22:31:04.226Z,148.60
2022-07-25T22:34:07.307Z,141.12
2022-07-25T22:37:10.120Z,148.18
2022-07-25T22:40:13.701Z,138.40
2022-07-25T22:43:16.341Z,141.48
2022-07-25T22:46:19.336Z,151.32
2022-07-25T22:49:23.400Z,142.27
2022-07-25T22:52:26.503Z,144.45
2022-07-25T22:55:29.325Z,134.15
2022-07-25T22:58:32.278Z,144.00
2022-07-25T23:01:35.022Z,134.45
2022-07-25T23:04:38.460Z,138.52
2022-07-25T23:07:41.174Z,131.80
2022-07-25T23:10:44.085Z,133.60
2022-07-25T23:13:48.003Z,138.50
2022-07-25T23:17:10.834Z,137.25
2022-07-25T23:20:13.730Z,132.87
2022-07-25T23:23:16.741Z,137.73
2022-07-25T23:26:19.409Z,135.45
2022-07-25T23:29:22.381Z,138.55
2022-07-25T23:32:25.029Z,142.57
2022-07-25T23:35:28.023Z,140.40
2022-07-25T23:38:30.759Z,175.12
2022-07-25T23:41:33.652Z,134.15
2022-07-25T23:44:37.991Z,136.60
2022-07-25T23:47:41.210Z,142.35
2022-07-25T23:50:45.673Z,134.12
2022-07-25T23:53:48.751Z,138.93
2022-07-25T23:56:51.958Z,129.85
2022-07-25T23:59:54.904Z,132.80
